Aeroporto :
LOGIN :

Iscrizione | Disclaimer

   EN    FR    IT 

 










Sommario :    VFR   VFR Marginale   IFR   IFR Intensivo   IFR Molto Intensivo
Visibilità : 
Base nubi : 
>= 8 km
>= 3000ft
5 / 8 km
1000 / 3000 ft
1500m / 5 km
500 / 1000 ft
800 / 1500m
200 / 500 ft
< 800m
< 200 ft
Simboli :   Temporali  Nebbia  Neve Forte  Precipitazioni Forti  Vento > 20 kt
SIGMETs :   Varie  Temporali  Ghiacco  Turbolenza  Onda orograficha  Ceneri Vulcaniche






- Altitudine del aeroporto : 7 ft
- Codice IATA : XHE


LFTH - Hyeres

ULTIMO METAR :
  • 171500Z AUTO 28015KT CAVOK 11/03 Q1004 TEMPO 27015G25KT

METARs OBSOLETI :
  • 171430Z AUTO 27015KT CAVOK 12/04 Q1004 TEMPO 27015G25KT
  • 171400Z AUTO 27015KT CAVOK 12/04 Q1004 BECMG 27015G25KT
  • 171330Z AUTO 27013KT CAVOK 12/04 Q1003 BECMG 27015G25KT
  • 171300Z AUTO 25016KT CAVOK 12/04 Q1003 BECMG 27015G25KT
  • 171230Z AUTO 27016KT CAVOK 12/04 Q1003 BECMG 27015G25KT

TAF TAF LFTH
Valido dal 17 a 15 ore il 18 a 15 ore UTC


171400Z 1715/1815 27015G25KT CAVOK
BECMG 1716/1717 26010KT
BECMG 1723/1724 36012KT



MetMap, La meteo Aeronautica in un colpo d'occhio ! - Copyright ORBIFLY Dicembre 2007 - Disclaimer

ORBIFLY MET'MAP TEAM :

Programmazione e sviluppo : Alexandra Zaïnal
Concezione e sviluppo : Baudouin d'Aumeries
Co-Programmazione e sviluppo : Marc-Olivier Méhu
Supporto tecnico e logistico : Manuel Goepfert
Aiuto per la traduzione : Arnaldo La Scala

Contatto : metmap@orbifly.com




FONTI E CREDITI :

   NOAA